KFNL

Fort Collins-Loveland Municipal Airport

Fort Collins/Loveland, Colorado, USA
METAR KFNL 171556Z AUTO 01007KT 10SM CLR 22/13 A3027 RMK AO2 SLP189 T02170128 PNO $
Observed Flight Rules
Aug-17 @ 15:56 UTC (54 minutes ago) Visual Flight Rules
Wind Visibility Clouds
10° at 7 knots 10 miles
  • Clear skies
Temperatures Readings
Current 22°C / 72°F
Dewpoint 13°C / 55°F
Humidity 57%
Altimeter 30.27" Hg
Pressure 1018.9 hPa
Elevation 1529
METAR KFNL 171556Z AUTO 01007KT 10SM CLR 22/13 A3027 RMK AO2 SLP189 T02170128 PNO $
Observed Flight Rules
Aug-17 @ 15:56 UTC
(54 minutes ago)
VFR
Wind Visibility
10° at 7 knots 10 miles
Clouds
  • Clear skies
Temperature Dewpoint
22°C / 72°F 13°C / 55°F
Humidity Altimeter Pressure
57% 30.27" Hg 1018.9 hPa